Aflex, Kentucky
Current Conditions -  °F | °C
As of 5:15 AM on Tuesday 27 Jan 2015 (Local Time) from KPBX Reporting Station
Overcast Overcast  
Wind Chill: -4°   Ceiling: 2200
Heat Index: -4°   Visibility: 10mi
Dew Point: -6°   Wind: 0mph
Humidity: 87%   Direction: NA
Pressure: 29.85"   Gusts: NA
Location:  37.632°N, 82.2603°W
Report Text: KPBX 271015Z AUTO 00000KT 10SM OVC022 M04/M06 A2985 RMK AO2 T10421060
Loading
Personal Weather Stations






























Interactive Weather Map New forecast layout! Learn more

10-Day Weather Forecast

Advertisements
Track Severe Weather on mobile